Time;durP1;ratioP1;P1;durP2;ratioP2;P2;SDS_P1;SDS_P2;PMS_P1;PMS_P2;Temp;Humidity;BMP_temperature;BMP_pressure;BME280_temperature;BME280_humidity;BME280_pressure;Samples;Min_cycle;Max_cycle;Signal;HPM_P1;HPM_P2
2022/09/23 00:01:33;;;;;;;8.43;7.73;;;10.10;99.90;;;;;;5080984;28;20833;-82
2022/09/23 00:04:02;;;;;;;9.23;8.43;;;10.10;99.90;;;;;;5080791;28;20950;-81
2022/09/23 00:06:30;;;;;;;9.80;8.93;;;10.10;99.90;;;;;;5082562;28;20456;-82
2022/09/23 00:08:58;;;;;;;9.10;8.30;;;10.20;99.90;;;;;;5081117;28;20490;-82
2022/09/23 00:11:28;;;;;;;9.87;9.07;;;10.00;99.90;;;;;;5081862;28;20449;-81
2022/09/23 00:13:58;;;;;;;9.30;8.40;;;10.10;99.90;;;;;;5083059;28;20437;-82
2022/09/23 00:16:29;;;;;;;9.67;8.77;;;10.10;99.90;;;;;;5081764;28;20451;-81
2022/09/23 00:18:59;;;;;;;9.80;8.90;;;10.00;99.90;;;;;;5080985;28;20536;-82
2022/09/23 00:21:28;;;;;;;9.57;8.77;;;9.90;99.90;;;;;;5080289;28;20990;-81
2022/09/23 00:23:56;;;;;;;9.47;8.47;;;9.90;99.90;;;;;;5079578;28;20448;-82
2022/09/23 00:26:24;;;;;;;7.70;6.53;;;9.90;99.90;;;;;;5080501;28;20453;-82
2022/09/23 00:28:53;;;;;;;9.90;7.70;;;9.90;99.90;;;;;;5081094;28;20451;-81
2022/09/23 00:31:22;;;;;;;9.10;8.20;;;9.90;99.90;;;;;;5077991;28;20860;-81
2022/09/23 00:33:55;;;;;;;9.77;8.77;;;9.90;99.90;;;;;;5081637;28;20472;-82
2022/09/23 00:36:25;;;;;;;8.80;8.10;;;9.90;99.90;;;;;;5083861;28;20449;-81
2022/09/23 00:38:54;;;;;;;9.20;8.30;;;9.80;99.90;;;;;;5082937;28;20504;-82
2022/09/23 00:41:23;;;;;;;8.53;7.93;;;9.80;99.90;;;;;;5083730;28;20515;-82
2022/09/23 00:43:53;;;;;;;8.60;7.80;;;9.80;99.90;;;;;;5082168;28;20500;-81
2022/09/23 00:46:27;;;;;;;8.83;8.13;;;9.70;99.90;;;;;;5081965;28;20958;-81
2022/09/23 00:49:00;;;;;;;8.30;7.60;;;9.70;99.90;;;;;;5084111;28;20829;-82
2022/09/23 00:51:33;;;;;;;8.47;7.60;;;9.70;99.90;;;;;;5083990;28;20860;-81
2022/09/23 00:54:02;;;;;;;8.27;7.40;;;9.70;99.90;;;;;;5083557;28;20426;-81
2022/09/23 00:56:32;;;;;;;10.43;7.97;;;9.70;99.90;;;;;;5082637;28;20444;-82
2022/09/23 00:59:01;;;;;;;8.97;8.27;;;9.70;99.90;;;;;;5082180;28;20434;-81
2022/09/23 01:01:29;;;;;;;9.60;8.70;;;9.60;99.90;;;;;;5081578;28;20540;-81
2022/09/23 01:03:58;;;;;;;8.70;7.90;;;9.60;99.90;;;;;;5083280;28;20470;-81
2022/09/23 01:06:28;;;;;;;9.33;8.23;;;9.60;99.90;;;;;;5083211;28;20930;-81
2022/09/23 01:08:57;;;;;;;9.13;8.23;;;9.60;99.90;;;;;;5082352;28;20522;-81
2022/09/23 01:11:45;;;;;;;8.80;8.00;;;9.60;99.90;;;;;;5083929;28;20445;-81
2022/09/23 01:14:30;;;;;;;9.23;8.33;;;9.60;99.90;;;;;;5082735;28;20445;-81
2022/09/23 01:17:03;;;;;;;7.73;7.03;;;9.60;99.90;;;;;;5087181;28;20452;-82
2022/09/23 01:19:58;;;;;;;8.43;7.70;;;9.50;99.90;;;;;;5087324;28;20961;-81
2022/09/23 01:22:35;;;;;;;8.80;8.10;;;9.50;99.90;;;;;;5086445;28;20483;-82
2022/09/23 01:25:36;;;;;;;7.70;7.00;;;9.50;99.90;;;;;;5088005;28;20429;-82
2022/09/23 01:28:33;;;;;;;8.57;7.87;;;9.50;99.90;;;;;;5085506;28;20453;-81
2022/09/23 01:31:08;;;;;;;8.07;7.40;;;9.50;99.90;;;;;;5084853;28;20447;-80
2022/09/23 01:33:44;;;;;;;8.40;7.70;;;9.40;99.90;;;;;;5083592;28;20472;-81
2022/09/23 01:36:21;;;;;;;8.40;7.70;;;9.40;99.90;;;;;;5085110;28;20425;-81
2022/09/23 01:38:58;;;;;;;9.20;8.27;;;9.40;99.90;;;;;;5084757;28;20568;-82
2022/09/23 01:41:45;;;;;;;8.40;7.70;;;9.40;99.90;;;;;;5081913;28;20509;-81
2022/09/23 01:44:19;;;;;;;8.50;7.90;;;9.40;99.90;;;;;;5082382;28;20444;-81
2022/09/23 01:46:53;;;;;;;8.63;7.93;;;9.40;99.90;;;;;;5083914;28;20457;-81
2022/09/23 01:49:27;;;;;;;8.40;7.70;;;9.40;99.90;;;;;;5083491;28;20500;-81
2022/09/23 01:52:04;;;;;;;8.57;7.87;;;9.40;99.90;;;;;;5083702;28;20799;-81
2022/09/23 01:54:39;;;;;;;8.70;8.10;;;9.30;99.90;;;;;;5084573;28;20965;-80
2022/09/23 01:57:12;;;;;;;8.27;7.63;;;9.30;99.90;;;;;;5084354;28;20523;-81
2022/09/23 01:59:44;;;;;;;10.80;8.37;;;9.30;99.90;;;;;;5082718;28;20842;-80
2022/09/23 02:02:22;;;;;;;8.40;7.70;;;9.30;99.90;;;;;;5082230;28;20487;-81
2022/09/23 02:04:56;;;;;;;8.77;8.07;;;9.30;99.90;;;;;;5084220;28;20440;-81
2022/09/23 02:07:27;;;;;;;8.87;8.13;;;9.30;99.90;;;;;;5082756;28;20457;-81
2022/09/23 02:10:00;;;;;;;8.40;7.63;;;9.30;99.90;;;;;;5081284;28;20438;-80
2022/09/23 02:12:32;;;;;;;8.53;7.73;;;9.30;99.90;;;;;;5081109;28;21043;-81
2022/09/23 02:15:06;;;;;;;8.87;8.10;;;9.30;99.90;;;;;;5081800;28;20745;-80
2022/09/23 02:17:42;;;;;;;8.73;7.90;;;9.30;99.90;;;;;;5079960;28;20429;-81
2022/09/23 02:20:14;;;;;;;9.37;8.13;;;9.30;99.90;;;;;;5079363;28;20445;-81
2022/09/23 02:22:51;;;;;;;8.33;7.63;;;9.20;99.90;;;;;;5079656;28;20477;-80
2022/09/23 02:25:24;;;;;;;8.80;8.10;;;9.30;99.90;;;;;;5080534;28;20437;-80
2022/09/23 02:27:58;;;;;;;9.10;8.30;;;9.20;99.90;;;;;;5080300;28;20520;-81
2022/09/23 02:30:30;;;;;;;8.33;7.73;;;9.20;99.90;;;;;;5080748;28;20456;-80
2022/09/23 02:33:04;;;;;;;8.53;7.83;;;9.20;99.90;;;;;;5079669;28;20464;-80
2022/09/23 02:35:36;;;;;;;8.90;8.20;;;9.20;99.90;;;;;;5078858;28;20530;-79
2022/09/23 02:38:17;;;;;;;7.77;7.17;;;9.20;99.90;;;;;;5078404;28;20455;-80
2022/09/23 02:40:53;;;;;;;9.10;8.40;;;9.20;99.90;;;;;;5077809;28;20449;-79
2022/09/23 02:43:26;;;;;;;8.00;7.40;;;9.20;99.90;;;;;;5078212;28;21020;-80
2022/09/23 02:45:54;;;;;;;7.47;6.87;;;9.20;99.90;;;;;;5079402;28;20440;-81
2022/09/23 02:48:29;;;;;;;8.50;7.80;;;9.10;99.90;;;;;;5077502;28;20453;-79
2022/09/23 02:51:01;;;;;;;9.90;9.10;;;9.20;99.90;;;;;;5077457;28;20816;-81
2022/09/23 02:53:32;;;;;;;9.07;8.37;;;9.10;99.90;;;;;;5079646;28;21035;-79
2022/09/23 02:56:01;;;;;;;8.30;7.57;;;9.10;99.90;;;;;;5077521;28;20445;-80
2022/09/23 02:58:29;;;;;;;9.00;8.10;;;9.10;99.90;;;;;;5078888;28;20448;-79
2022/09/23 03:01:07;;;;;;;8.40;7.80;;;9.10;99.90;;;;;;5077371;28;20446;-80
2022/09/23 03:03:43;;;;;;;8.53;7.73;;;9.10;99.90;;;;;;5077327;28;20507;-79
2022/09/23 03:06:23;;;;;;;8.80;8.00;;;9.10;99.90;;;;;;5078970;28;20917;-79
2022/09/23 03:08:56;;;;;;;9.50;8.50;;;9.10;99.90;;;;;;5076992;28;20445;-79
2022/09/23 03:11:24;;;;;;;7.60;7.00;;;9.30;99.90;;;;;;5077308;28;20437;-79
2022/09/23 03:14:03;;;;;;;8.17;7.40;;;9.10;99.90;;;;;;5076891;28;20465;-79
2022/09/23 03:16:39;;;;;;;7.50;6.90;;;9.10;99.90;;;;;;5076139;28;20441;-80
2022/09/23 03:19:19;;;;;;;8.57;7.50;;;9.10;99.90;;;;;;5076544;28;20449;-79
2022/09/23 03:21:56;;;;;;;8.30;7.60;;;9.00;99.90;;;;;;5077429;28;20437;-79
2022/09/23 03:24:25;;;;;;;8.00;7.20;;;9.10;99.90;;;;;;5077059;28;20441;-79
2022/09/23 03:26:54;;;;;;;7.60;6.90;;;9.10;99.90;;;;;;5078642;28;20855;-78
2022/09/23 03:29:23;;;;;;;7.90;7.30;;;9.00;99.90;;;;;;5075569;28;20464;-80
2022/09/23 03:31:52;;;;;;;9.53;7.60;;;9.00;99.90;;;;;;5075702;28;20473;-80
2022/09/23 03:34:25;;;;;;;8.73;8.10;;;9.00;99.90;;;;;;5075398;28;20441;-78
2022/09/23 03:37:00;;;;;;;8.87;8.07;;;9.00;99.90;;;;;;5076405;28;20810;-78
2022/09/23 03:39:39;;;;;;;8.70;8.00;;;9.00;99.90;;;;;;5077978;28;20440;-79
2022/09/23 03:42:11;;;;;;;8.73;7.93;;;8.90;99.90;;;;;;5077579;28;20479;-80
2022/09/23 03:44:43;;;;;;;8.80;8.00;;;9.00;99.90;;;;;;5076555;28;20467;-80
2022/09/23 03:47:13;;;;;;;9.07;8.27;;;9.00;99.90;;;;;;5078281;28;20433;-80
2022/09/23 03:49:47;;;;;;;9.10;8.40;;;9.10;99.90;;;;;;5078132;28;20487;-80
2022/09/23 03:52:15;;;;;;;9.80;8.90;;;9.00;99.90;;;;;;5077061;28;20472;-80
2022/09/23 03:54:43;;;;;;;10.67;9.60;;;9.00;99.90;;;;;;5078437;28;20434;-79
2022/09/23 03:57:12;;;;;;;8.47;7.67;;;9.00;99.90;;;;;;5077617;28;20441;-79
2022/09/23 03:59:41;;;;;;;8.60;7.90;;;9.00;99.90;;;;;;5076184;28;20491;-79
2022/09/23 04:02:10;;;;;;;8.20;7.60;;;8.90;99.90;;;;;;5078278;28;20469;-79
2022/09/23 04:04:40;;;;;;;8.77;8.07;;;8.90;99.90;;;;;;5076833;28;20451;-79
2022/09/23 04:07:10;;;;;;;8.80;8.10;;;8.90;99.90;;;;;;5077743;28;20438;-79
2022/09/23 04:09:39;;;;;;;7.93;7.33;;;8.90;99.90;;;;;;5077550;28;20453;-79
2022/09/23 04:12:07;;;;;;;8.30;7.70;;;8.90;99.90;;;;;;5076892;28;20897;-81
2022/09/23 04:14:35;;;;;;;9.00;8.30;;;8.90;99.90;;;;;;5076405;28;20861;-79
2022/09/23 04:17:04;;;;;;;8.20;7.50;;;8.90;99.90;;;;;;5075578;28;20457;-80
2022/09/23 04:19:32;;;;;;;9.50;8.60;;;8.90;99.90;;;;;;5077471;28;20510;-80
2022/09/23 04:22:00;;;;;;;8.87;8.17;;;8.90;99.90;;;;;;5076200;28;20473;-80
2022/09/23 04:24:30;;;;;;;8.93;8.20;;;8.90;99.90;;;;;;5081786;28;20519;-81
2022/09/23 04:26:58;;;;;;;9.30;8.47;;;8.90;99.90;;;;;;5083592;28;20467;-81
2022/09/23 04:29:26;;;;;;;9.20;8.30;;;8.80;99.90;;;;;;5082330;28;20470;-81
2022/09/23 04:31:55;;;;;;;9.80;8.90;;;8.80;99.90;;;;;;5081274;28;20461;-81
2022/09/23 04:34:23;;;;;;;9.03;8.23;;;8.80;99.90;;;;;;5080465;28;20448;-81
2022/09/23 04:36:51;;;;;;;9.10;8.23;;;8.80;99.90;;;;;;5083595;28;20445;-81
2022/09/23 04:39:19;;;;;;;9.60;8.80;;;8.80;99.90;;;;;;5082243;28;20596;-81
2022/09/23 04:41:49;;;;;;;9.93;9.03;;;8.70;99.90;;;;;;5081086;28;20445;-81
2022/09/23 04:44:20;;;;;;;9.33;8.43;;;8.80;99.90;;;;;;5082116;28;20476;-81
2022/09/23 04:46:48;;;;;;;9.33;8.53;;;8.80;99.90;;;;;;5080721;28;20806;-81
2022/09/23 04:49:17;;;;;;;10.80;9.73;;;8.90;99.90;;;;;;5082201;28;20540;-81
2022/09/23 04:51:45;;;;;;;9.57;8.57;;;8.70;99.90;;;;;;5080750;28;20479;-81
2022/09/23 04:54:14;;;;;;;11.70;10.60;;;8.70;99.90;;;;;;5079066;28;20943;-80
2022/09/23 04:56:42;;;;;;;15.90;14.50;;;8.70;99.90;;;;;;5078451;28;20820;-80
2022/09/23 04:59:11;;;;;;;13.83;12.73;;;8.70;99.90;;;;;;5078121;28;20445;-81
2022/09/23 05:01:40;;;;;;;16.53;14.83;;;8.70;99.90;;;;;;5080129;28;20440;-81
2022/09/23 05:04:13;;;;;;;12.10;11.10;;;8.70;99.90;;;;;;5079275;28;20461;-80
2022/09/23 05:06:42;;;;;;;11.17;10.07;;;8.70;99.90;;;;;;5078443;28;20859;-81
2022/09/23 05:09:16;;;;;;;10.87;9.87;;;8.60;99.90;;;;;;5079204;28;20437;-79
2022/09/23 05:11:45;;;;;;;10.20;9.30;;;8.60;99.90;;;;;;5078080;28;20438;-81
2022/09/23 05:14:14;;;;;;;10.50;9.50;;;8.60;99.90;;;;;;5077687;28;20547;-80
2022/09/23 05:16:42;;;;;;;9.77;8.80;;;8.60;99.90;;;;;;5077941;28;20498;-80
2022/09/23 05:19:12;;;;;;;13.03;9.67;;;8.60;99.90;;;;;;5077559;28;20453;-82
2022/09/23 05:21:40;;;;;;;11.57;10.57;;;8.60;99.90;;;;;;5078470;28;20508;-82
2022/09/23 05:24:09;;;;;;;10.90;9.70;;;8.60;99.90;;;;;;5078376;28;20475;-81
2022/09/23 05:26:38;;;;;;;10.67;9.70;;;8.50;99.90;;;;;;5077047;28;20544;-81
2022/09/23 05:29:06;;;;;;;10.40;9.40;;;8.60;99.90;;;;;;5079029;28;20539;-80
2022/09/23 05:31:36;;;;;;;11.27;10.30;;;8.50;99.90;;;;;;5079615;28;20848;-81
2022/09/23 05:34:05;;;;;;;9.83;8.87;;;8.50;99.90;;;;;;5078998;28;20441;-81
2022/09/23 05:36:35;;;;;;;10.20;9.30;;;8.50;99.90;;;;;;5080474;28;20452;-81
2022/09/23 05:39:07;;;;;;;12.93;11.67;;;8.50;99.90;;;;;;5079144;28;20441;-81
2022/09/23 05:41:36;;;;;;;17.20;15.67;;;8.50;99.90;;;;;;5079170;28;21019;-81
2022/09/23 05:44:04;;;;;;;16.17;14.77;;;8.50;99.90;;;;;;5075666;28;21077;-81
2022/09/23 05:46:33;;;;;;;12.80;11.70;;;8.50;99.90;;;;;;5079116;28;20433;-82
2022/09/23 05:49:04;;;;;;;11.10;10.20;;;8.50;99.90;;;;;;5079987;28;20950;-81
2022/09/23 05:51:34;;;;;;;10.03;9.03;;;8.50;99.90;;;;;;5079956;28;20445;-81
2022/09/23 05:54:04;;;;;;;9.17;8.30;;;8.50;99.90;;;;;;5083076;28;20813;-81
2022/09/23 05:56:34;;;;;;;9.60;8.80;;;8.50;99.90;;;;;;5080457;28;20540;-82
2022/09/23 05:59:03;;;;;;;9.00;8.20;;;8.40;99.90;;;;;;5082026;28;20448;-80
2022/09/23 06:01:33;;;;;;;9.00;8.23;;;8.50;99.90;;;;;;5081570;28;20449;-82
2022/09/23 06:04:05;;;;;;;8.50;7.80;;;8.40;99.90;;;;;;5087309;28;20499;-81
2022/09/23 06:06:35;;;;;;;8.97;8.20;;;8.50;99.90;;;;;;5085398;28;20523;-80
2022/09/23 06:09:03;;;;;;;9.03;8.33;;;8.50;99.90;;;;;;5084844;28;20457;-81
2022/09/23 06:11:33;;;;;;;8.93;8.23;;;8.50;99.90;;;;;;5085306;28;20449;-80
2022/09/23 06:14:02;;;;;;;8.00;7.20;;;8.50;99.90;;;;;;5084418;28;20449;-81
2022/09/23 06:16:32;;;;;;;8.97;8.17;;;8.60;99.90;;;;;;5085157;28;20441;-81
2022/09/23 06:19:05;;;;;;;9.40;8.60;;;8.60;99.90;;;;;;5086713;28;20433;-80
2022/09/23 06:21:36;;;;;;;9.07;8.27;;;8.70;99.90;;;;;;5084928;28;20440;-81
2022/09/23 06:24:05;;;;;;;8.80;7.97;;;8.70;99.90;;;;;;5084198;28;20469;-81
2022/09/23 06:26:33;;;;;;;9.40;8.50;;;8.80;99.90;;;;;;5084935;28;20441;-81
2022/09/23 06:29:03;;;;;;;8.80;7.90;;;8.90;99.90;;;;;;5084887;28;20450;-80
2022/09/23 06:31:31;;;;;;;9.60;8.80;;;9.00;99.90;;;;;;5084330;28;20812;-80
2022/09/23 06:34:00;;;;;;;9.67;8.77;;;9.10;99.90;;;;;;5084599;28;20536;-81
2022/09/23 06:36:42;;;;;;;10.90;9.90;;;9.10;99.90;;;;;;5083545;28;20471;-81
2022/09/23 06:39:14;;;;;;;9.27;8.47;;;9.20;99.90;;;;;;5083950;28;20448;-80
2022/09/23 06:41:43;;;;;;;9.53;8.77;;;9.20;99.90;;;;;;5084547;28;20441;-80
2022/09/23 06:44:14;;;;;;;13.97;12.70;;;9.30;99.90;;;;;;5086809;28;20454;-81
2022/09/23 06:46:43;;;;;;;9.63;8.83;;;9.30;99.90;;;;;;5085653;28;20451;-82
2022/09/23 06:49:12;;;;;;;8.47;7.77;;;9.40;99.90;;;;;;5084950;28;20456;-82
2022/09/23 06:51:42;;;;;;;8.73;7.93;;;9.40;99.90;;;;;;5086535;28;20441;-81
2022/09/23 06:54:10;;;;;;;7.60;6.90;;;9.40;99.90;;;;;;5085558;28;20445;-80
2022/09/23 06:56:39;;;;;;;6.10;5.60;;;9.50;99.90;;;;;;5086097;28;20445;-82
2022/09/23 06:59:09;;;;;;;7.90;6.53;;;9.50;99.90;;;;;;5085494;28;20456;-80
2022/09/23 07:01:37;;;;;;;9.70;6.90;;;9.60;99.90;;;;;;5083438;28;20451;-81
2022/09/23 07:04:06;;;;;;;7.03;6.30;;;9.60;99.90;;;;;;5081771;28;20476;-80
2022/09/23 07:06:35;;;;;;;9.20;6.97;;;9.70;99.90;;;;;;5083605;28;20449;-80
2022/09/23 07:09:06;;;;;;;9.90;7.60;;;9.70;99.90;;;;;;5083759;28;20985;-81
2022/09/23 07:11:34;;;;;;;8.93;7.83;;;9.80;99.90;;;;;;5084038;28;20520;-80
2022/09/23 07:14:02;;;;;;;11.90;10.80;;;9.80;99.90;;;;;;5082353;28;20456;-81
2022/09/23 07:16:31;;;;;;;9.60;8.70;;;9.90;99.90;;;;;;5083411;28;20442;-81
2022/09/23 07:18:59;;;;;;;9.17;8.33;;;9.90;99.90;;;;;;5083534;28;20459;-81
2022/09/23 07:21:28;;;;;;;6.47;5.87;;;10.00;99.90;;;;;;5085328;28;20449;-80
2022/09/23 07:23:56;;;;;;;7.37;6.67;;;10.00;99.90;;;;;;5085995;28;20469;-79
2022/09/23 07:26:28;;;;;;;7.70;7.00;;;10.10;99.90;;;;;;5084996;28;20847;-80
2022/09/23 07:29:03;;;;;;;8.77;7.00;;;10.20;99.90;;;;;;5091256;28;20455;-80
2022/09/23 07:31:33;;;;;;;11.60;10.33;;;10.20;99.90;;;;;;5087316;28;20519;-81
2022/09/23 07:34:08;;;;;;;8.80;8.00;;;10.30;99.90;;;;;;5086508;28;20441;-81
2022/09/23 07:36:39;;;;;;;6.37;5.77;;;10.40;99.90;;;;;;5087620;28;20449;-81
2022/09/23 07:39:09;;;;;;;6.43;5.23;;;10.40;99.90;;;;;;5086416;28;20442;-81
2022/09/23 07:41:40;;;;;;;5.57;5.07;;;10.50;99.90;;;;;;5086186;28;20471;-81
2022/09/23 07:44:10;;;;;;;7.40;5.80;;;10.60;99.90;;;;;;5086006;28;20492;-81
2022/09/23 07:46:38;;;;;;;5.73;5.00;;;10.70;99.90;;;;;;5086407;28;20938;-81
2022/09/23 07:49:07;;;;;;;5.50;5.00;;;10.80;99.90;;;;;;5085391;28;20532;-81
2022/09/23 07:51:38;;;;;;;5.30;4.90;;;10.80;99.90;;;;;;5085762;28;20480;-80
2022/09/23 07:54:10;;;;;;;5.20;4.70;;;11.00;99.90;;;;;;5085325;28;20441;-80
2022/09/23 07:56:40;;;;;;;7.17;4.90;;;11.10;99.90;;;;;;5084518;28;20984;-80
2022/09/23 07:59:11;;;;;;;6.57;5.63;;;11.30;99.90;;;;;;5085009;28;20540;-80
2022/09/23 08:01:41;;;;;;;16.63;4.63;;;11.40;99.90;;;;;;5084584;28;20469;-80
2022/09/23 08:04:13;;;;;;;5.60;4.47;;;11.60;99.90;;;;;;5085021;28;20511;-79
2022/09/23 08:06:42;;;;;;;7.37;6.13;;;11.70;99.90;;;;;;5084349;28;20429;-80
2022/09/23 08:09:11;;;;;;;7.17;6.20;;;11.90;99.90;;;;;;5084522;28;20481;-80
2022/09/23 08:11:41;;;;;;;5.37;4.30;;;12.00;99.90;;;;;;5083196;28;20437;-79
2022/09/23 08:14:09;;;;;;;4.80;3.87;;;12.20;99.90;;;;;;5081147;28;20460;-79
2022/09/23 08:16:38;;;;;;;5.77;4.30;;;12.30;99.90;;;;;;5081462;28;20448;-79
2022/09/23 08:19:07;;;;;;;4.20;3.70;;;12.50;99.90;;;;;;5083012;28;20452;-78
2022/09/23 08:21:38;;;;;;;5.60;3.77;;;12.70;99.90;;;;;;5086847;28;20433;-80
2022/09/23 08:24:06;;;;;;;4.17;3.60;;;12.80;99.90;;;;;;5082339;28;20448;-79
2022/09/23 08:26:35;;;;;;;4.43;3.50;;;13.00;99.90;;;;;;5080154;28;21069;-80
2022/09/23 08:29:05;;;;;;;7.17;4.20;;;13.10;99.90;;;;;;5081266;28;20449;-79
2022/09/23 08:31:33;;;;;;;6.83;3.70;;;13.30;99.90;;;;;;5081459;28;20805;-80
2022/09/23 08:34:01;;;;;;;4.27;3.43;;;13.30;99.90;;;;;;5084034;28;20437;-79
2022/09/23 08:36:32;;;;;;;8.07;6.13;;;13.50;99.90;;;;;;5080405;28;20454;-79
2022/09/23 08:39:00;;;;;;;4.00;3.50;;;13.60;99.90;;;;;;5087271;28;20526;-79
2022/09/23 08:41:38;;;;;;;3.33;2.83;;;13.70;99.90;;;;;;5085545;28;20457;-79
2022/09/23 08:44:14;;;;;;;4.30;3.50;;;13.90;99.90;;;;;;5086330;28;20448;-81
2022/09/23 08:46:47;;;;;;;4.53;3.60;;;14.00;99.90;;;;;;5083977;28;20453;-82
2022/09/23 08:49:24;;;;;;;4.40;3.93;;;14.10;99.90;;;;;;5083398;28;20442;-79
2022/09/23 08:51:54;;;;;;;3.47;3.17;;;14.20;99.90;;;;;;5084866;28;20465;-79
2022/09/23 08:54:26;;;;;;;3.90;3.10;;;14.30;99.90;;;;;;5084104;28;20445;-79
2022/09/23 08:56:59;;;;;;;4.20;3.20;;;14.40;99.90;;;;;;5086624;28;20567;-79
2022/09/23 08:59:40;;;;;;;4.10;3.40;;;14.50;99.90;;;;;;5086352;28;20430;-81
2022/09/23 09:02:15;;;;;;;4.53;3.40;;;14.70;99.90;;;;;;5085009;28;20456;-82
2022/09/23 09:04:48;;;;;;;4.77;2.97;;;14.80;99.90;;;;;;5084133;28;20438;-79
2022/09/23 09:07:21;;;;;;;4.20;3.03;;;14.90;99.90;;;;;;5084070;28;20925;-79
2022/09/23 09:10:10;;;;;;;4.27;3.40;;;15.10;99.90;;;;;;5083810;28;21025;-80
2022/09/23 09:12:43;;;;;;;5.27;3.50;;;15.20;99.90;;;;;;5086734;28;20479;-81
2022/09/23 09:15:15;;;;;;;5.43;3.30;;;15.30;99.90;;;;;;5083691;28;20465;-81
2022/09/23 09:17:58;;;;;;;5.83;2.93;;;15.40;99.90;;;;;;5085421;28;20410;-81
2022/09/23 09:20:34;;;;;;;5.53;3.60;;;15.50;99.90;;;;;;5085875;28;20408;-80
2022/09/23 09:23:09;;;;;;;6.70;3.70;;;15.60;99.90;;;;;;5085022;28;20488;-82
2022/09/23 09:25:43;;;;;;;3.90;3.60;;;15.70;99.90;;;;;;5083002;28;20467;-81
2022/09/23 09:28:18;;;;;;;6.07;3.83;;;15.70;99.90;;;;;;5083893;28;20483;-80
2022/09/23 09:30:53;;;;;;;4.90;3.27;;;15.80;99.90;;;;;;5084517;28;20426;-81
2022/09/23 09:33:29;;;;;;;4.60;3.50;;;15.90;99.90;;;;;;5083753;28;20488;-81
2022/09/23 09:36:07;;;;;;;5.87;3.50;;;15.90;99.90;;;;;;5086421;28;20448;-82
2022/09/23 09:38:36;;;;;;;4.53;3.90;;;16.00;99.90;;;;;;5089013;28;20438;-81
2022/09/23 09:41:13;;;;;;;3.97;3.20;;;16.00;99.90;;;;;;5089107;28;20522;-81
2022/09/23 09:43:47;;;;;;;6.07;3.43;;;16.00;99.90;;;;;;5089578;28;20468;-82
2022/09/23 09:46:33;;;;;;;7.20;5.40;;;16.10;99.90;;;;;;5091830;28;20465;-82
2022/09/23 09:49:09;;;;;;;5.30;3.33;;;16.10;99.90;;;;;;5093017;28;20493;-81
2022/09/23 09:51:40;;;;;;;3.40;3.10;;;16.10;99.90;;;;;;5090703;28;20415;-81
2022/09/23 09:54:22;;;;;;;4.43;4.03;;;16.20;99.90;;;;;;5087688;28;20954;-82
2022/09/23 09:56:51;;;;;;;5.93;3.73;;;16.20;99.90;;;;;;5088030;28;20807;-81
2022/09/23 09:59:26;;;;;;;7.20;3.77;;;16.20;99.90;;;;;;5088922;28;20419;-82
2022/09/23 10:02:22;;;;;;;3.83;3.40;;;16.30;99.90;;;;;;5096442;28;20468;-82
2022/09/23 10:04:57;;;;;;;5.13;4.00;;;16.30;99.90;;;;;;5099171;28;20459;-81
2022/09/23 10:07:29;;;;;;;5.33;3.57;;;16.40;99.90;;;;;;5099539;28;20528;-81
2022/09/23 10:10:00;;;;;;;6.73;3.03;;;16.40;99.90;;;;;;5091280;28;20426;-80
2022/09/23 10:12:46;;;;;;;10.00;3.97;;;16.50;99.90;;;;;;5090111;28;20473;-81
2022/09/23 10:15:30;;;;;;;4.23;3.67;;;16.50;99.90;;;;;;5091906;28;20400;-82
2022/09/23 10:18:00;;;;;;;6.97;5.87;;;16.60;99.90;;;;;;5090604;28;20448;-81
2022/09/23 10:20:37;;;;;;;13.97;12.53;;;16.60;99.90;;;;;;5091264;28;20507;-82
2022/09/23 10:23:13;;;;;;;4.70;3.73;;;16.70;99.90;;;;;;5092762;28;20457;-82
2022/09/23 10:25:42;;;;;;;4.23;3.80;;;16.70;99.90;;;;;;5091220;28;20449;-81
2022/09/23 10:28:39;;;;;;;4.03;3.57;;;16.80;99.90;;;;;;5090387;28;20814;-82
2022/09/23 10:31:10;;;;;;;4.50;3.90;;;16.80;99.90;;;;;;5091008;28;20483;-83
2022/09/23 10:33:48;;;;;;;5.03;3.60;;;16.90;99.90;;;;;;5094977;28;20480;-81
2022/09/23 10:36:18;;;;;;;4.90;4.40;;;16.90;99.90;;;;;;5091735;28;20469;-82
2022/09/23 10:38:49;;;;;;;6.97;4.87;;;16.90;99.90;;;;;;5091766;28;20456;-82
2022/09/23 10:47:26;;;;;;;4.97;4.30;;;17.10;99.90;;;;;;5087850;28;20461;-82
2022/09/23 10:50:22;;;;;;;4.57;3.90;;;17.20;99.90;;;;;;5088908;28;20384;-82
2022/09/23 10:53:03;;;;;;;7.50;4.50;;;17.30;99.90;;;;;;5091906;28;20459;-82
2022/09/23 10:55:45;;;;;;;6.90;4.20;;;17.30;99.90;;;;;;5091287;28;20470;-82
2022/09/23 10:58:57;;;;;;;4.70;4.13;;;17.40;99.90;;;;;;5090041;28;20408;-81
2022/09/23 11:01:35;;;;;;;5.67;4.57;;;17.40;99.90;;;;;;5089985;28;20429;-80
2022/09/23 11:04:39;;;;;;;5.30;4.80;;;17.50;99.90;;;;;;5087164;28;20809;-83
2022/09/23 11:07:20;;;;;;;7.37;4.53;;;17.50;99.90;;;;;;5088730;28;20438;-80
2022/09/23 11:10:10;;;;;;;5.17;3.73;;;17.50;99.90;;;;;;5090441;28;20411;-80
2022/09/23 11:13:06;;;;;;;5.33;3.80;;;17.60;99.90;;;;;;5090331;28;20444;-80
2022/09/23 11:15:44;;;;;;;5.63;4.87;;;17.60;99.90;;;;;;5089629;28;20441;-80
2022/09/23 11:18:47;;;;;;;4.97;4.57;;;17.70;99.90;;;;;;5089713;28;20431;-80
2022/09/23 11:21:36;;;;;;;5.40;4.53;;;17.70;99.90;;;;;;5090409;28;20438;-80
2022/09/23 11:24:31;;;;;;;4.80;4.20;;;17.70;99.90;;;;;;5090632;28;20517;-82
2022/09/23 11:27:10;;;;;;;6.23;4.33;;;17.80;99.90;;;;;;5089481;28;20468;-82
2022/09/23 11:29:55;;;;;;;5.13;3.50;;;17.80;99.90;;;;;;5095629;28;20811;-81
2022/09/23 11:32:43;;;;;;;4.60;4.13;;;17.90;99.90;;;;;;5097322;28;20484;-82
2022/09/23 11:35:16;;;;;;;4.80;4.40;;;17.90;99.90;;;;;;5096902;28;20830;-82
2022/09/23 11:37:48;;;;;;;5.60;4.63;;;17.90;99.90;;;;;;5096049;28;20455;-82
2022/09/23 11:40:23;;;;;;;5.03;4.37;;;18.00;99.90;;;;;;5095650;28;20488;-81
2022/09/23 11:42:56;;;;;;;9.90;8.47;;;18.00;99.90;;;;;;5092347;28;20537;-82
2022/09/23 11:45:30;;;;;;;5.27;4.77;;;18.00;99.90;;;;;;5091272;28;20468;-81
2022/09/23 11:48:04;;;;;;;4.70;4.30;;;18.00;99.90;;;;;;5089387;28;20514;-82
2022/09/23 11:50:36;;;;;;;4.90;4.40;;;18.00;99.90;;;;;;5088359;28;20537;-79
2022/09/23 11:53:11;;;;;;;5.10;4.60;;;18.00;99.90;;;;;;5086819;28;20443;-80
2022/09/23 11:55:46;;;;;;;4.53;4.00;;;18.00;99.90;;;;;;5086416;28;20938;-80
2022/09/23 11:58:28;;;;;;;6.03;4.97;;;18.00;99.90;;;;;;5087285;28;20521;-81
2022/09/23 12:01:01;;;;;;;5.63;4.87;;;18.10;99.90;;;;;;5086094;28;20437;-82
2022/09/23 12:03:40;;;;;;;5.57;4.90;;;18.10;99.90;;;;;;5085594;28;20448;-81
2022/09/23 12:06:15;;;;;;;4.73;4.33;;;18.10;99.90;;;;;;5085978;28;20439;-81
2022/09/23 12:08:44;;;;;;;4.70;4.30;;;18.10;99.90;;;;;;5087350;28;20456;-82
2022/09/23 12:11:25;;;;;;;4.50;4.10;;;18.10;99.90;;;;;;5083814;28;20461;-80
2022/09/23 12:14:01;;;;;;;5.20;4.70;;;18.10;99.90;;;;;;5085396;28;20470;-80
2022/09/23 12:16:44;;;;;;;5.23;4.70;;;18.20;99.90;;;;;;5085998;28;20443;-82
2022/09/23 12:19:28;;;;;;;5.00;4.50;;;18.10;99.90;;;;;;5085370;28;20447;-82
2022/09/23 12:22:18;;;;;;;4.60;4.20;;;18.10;99.90;;;;;;5084803;28;20477;-81
2022/09/23 12:24:58;;;;;;;5.73;5.23;;;18.10;99.90;;;;;;5081189;28;20451;-82
2022/09/23 12:27:44;;;;;;;5.97;5.47;;;18.10;99.90;;;;;;5077096;28;20505;-81
2022/09/23 12:30:17;;;;;;;5.00;4.50;;;18.10;99.90;;;;;;5075859;28;20510;-82
2022/09/23 12:33:08;;;;;;;7.67;5.03;;;18.10;99.90;;;;;;5076067;28;20500;-81
2022/09/23 12:35:48;;;;;;;5.10;4.60;;;18.10;99.90;;;;;;5075661;28;20448;-82
2022/09/23 12:38:25;;;;;;;6.00;5.50;;;18.20;99.90;;;;;;5076956;28;20810;-81
2022/09/23 12:40:55;;;;;;;4.73;4.10;;;18.20;99.90;;;;;;5079277;28;20866;-79
2022/09/23 12:43:30;;;;;;;7.03;4.87;;;18.20;99.90;;;;;;5077915;28;20477;-80
2022/09/23 12:46:19;;;;;;;8.37;4.43;;;18.20;99.90;;;;;;5077155;28;20424;-81
2022/09/23 12:49:00;;;;;;;5.27;4.80;;;18.20;99.90;;;;;;5075451;28;20461;-82
2022/09/23 12:51:29;;;;;;;4.93;4.53;;;18.20;99.90;;;;;;5075985;28;20801;-81
2022/09/23 12:54:13;;;;;;;5.10;4.60;;;18.20;99.90;;;;;;5078540;28;20448;-83
2022/09/23 12:57:02;;;;;;;6.03;5.40;;;18.20;99.90;;;;;;5075497;28;20527;-81
2022/09/23 12:59:47;;;;;;;5.23;4.73;;;18.20;99.90;;;;;;5080829;28;20452;-82
2022/09/23 13:02:35;;;;;;;6.97;5.10;;;18.20;99.90;;;;;;5075596;28;20832;-83
2022/09/23 13:08:09;;;;;;;7.67;5.23;;;18.30;99.90;;;;;;5077174;28;20470;-81
2022/09/23 13:10:43;;;;;;;7.00;5.20;;;18.30;99.90;;;;;;5074840;28;20520;-80
2022/09/23 13:13:21;;;;;;;6.23;5.23;;;18.30;99.90;;;;;;5079276;28;20531;-82
2022/09/23 13:15:53;;;;;;;7.87;5.20;;;18.30;99.90;;;;;;5079389;28;20471;-80
2022/09/23 13:18:57;;;;;;;6.00;5.50;;;18.40;99.90;;;;;;5081456;28;20480;-82
2022/09/23 13:22:01;;;;;;;5.70;4.70;;;18.40;99.90;;;;;;5084836;28;20455;-81
2022/09/23 13:24:40;;;;;;;5.10;4.60;;;18.40;99.90;;;;;;5076004;28;20441;-80
2022/09/23 13:27:30;;;;;;;5.60;4.83;;;18.40;99.90;;;;;;5086690;28;20472;-82
2022/09/23 13:30:03;;;;;;;4.80;4.30;;;18.40;99.90;;;;;;5082727;28;20464;-80
2022/09/23 13:32:37;;;;;;;4.83;4.40;;;18.40;99.90;;;;;;5078389;28;20500;-80
2022/09/23 13:35:15;;;;;;;6.50;5.60;;;18.40;99.90;;;;;;5078322;28;20942;-81